sensor_id;sensor_type;location;lat;lon;timestamp;temperature;humidity
33881;DHT22;20172;47.530;10.256;2022-08-04T00:00:10;19.30;99.90
33881;DHT22;20172;47.530;10.256;2022-08-04T00:08:45;19.00;99.90
33881;DHT22;20172;47.530;10.256;2022-08-04T00:11:24;19.00;99.90
33881;DHT22;20172;47.530;10.256;2022-08-04T00:13:57;19.00;99.90
33881;DHT22;20172;47.530;10.256;2022-08-04T00:16:28;18.90;99.90
33881;DHT22;20172;47.530;10.256;2022-08-04T00:18:58;18.90;99.90
33881;DHT22;20172;47.530;10.256;2022-08-04T00:21:27;19.00;99.90
33881;DHT22;20172;47.530;10.256;2022-08-04T00:23:54;19.00;99.90
33881;DHT22;20172;47.530;10.256;2022-08-04T00:26:21;19.00;99.90
33881;DHT22;20172;47.530;10.256;2022-08-04T00:28:47;19.00;99.90
33881;DHT22;20172;47.530;10.256;2022-08-04T00:31:14;19.00;99.90
33881;DHT22;20172;47.530;10.256;2022-08-04T00:33:47;19.10;99.90
33881;DHT22;20172;47.530;10.256;2022-08-04T00:36:15;19.10;99.90
33881;DHT22;20172;47.530;10.256;2022-08-04T00:38:42;19.00;99.90
33881;DHT22;20172;47.530;10.256;2022-08-04T00:58:42;18.30;99.90
33881;DHT22;20172;47.530;10.256;2022-08-04T01:01:59;18.20;99.90
33881;DHT22;20172;47.530;10.256;2022-08-04T01:15:32;18.50;99.90
33881;DHT22;20172;47.530;10.256;2022-08-04T01:20:32;18.50;99.90
33881;DHT22;20172;47.530;10.256;2022-08-04T01:29:11;18.30;99.90
33881;DHT22;20172;47.530;10.256;2022-08-04T01:31:47;18.20;99.90
33881;DHT22;20172;47.530;10.256;2022-08-04T01:34:16;18.20;99.90
33881;DHT22;20172;47.530;10.256;2022-08-04T01:36:56;18.30;99.90
33881;DHT22;20172;47.530;10.256;2022-08-04T01:39:28;18.30;99.90
33881;DHT22;20172;47.530;10.256;2022-08-04T01:42:11;18.30;99.90
33881;DHT22;20172;47.530;10.256;2022-08-04T01:44:39;18.30;99.90
33881;DHT22;20172;47.530;10.256;2022-08-04T01:47:07;18.10;99.90
33881;DHT22;20172;47.530;10.256;2022-08-04T01:49:33;17.90;99.90
33881;DHT22;20172;47.530;10.256;2022-08-04T01:51:59;18.00;99.90
33881;DHT22;20172;47.530;10.256;2022-08-04T01:54:26;18.10;99.90
33881;DHT22;20172;47.530;10.256;2022-08-04T01:56:55;18.10;99.90
33881;DHT22;20172;47.530;10.256;2022-08-04T01:59:22;18.00;99.90
33881;DHT22;20172;47.530;10.256;2022-08-04T02:01:48;18.00;99.90
33881;DHT22;20172;47.530;10.256;2022-08-04T02:04:19;18.00;99.90
33881;DHT22;20172;47.530;10.256;2022-08-04T02:12:04;18.00;99.90
33881;DHT22;20172;47.530;10.256;2022-08-04T02:14:44;18.00;99.90
33881;DHT22;20172;47.530;10.256;2022-08-04T02:20:08;17.60;99.90
33881;DHT22;20172;47.530;10.256;2022-08-04T02:22:39;17.60;99.90
33881;DHT22;20172;47.530;10.256;2022-08-04T02:25:09;17.80;99.90
33881;DHT22;20172;47.530;10.256;2022-08-04T02:30:32;18.10;99.90
33881;DHT22;20172;47.530;10.256;2022-08-04T02:33:02;18.00;99.90
33881;DHT22;20172;47.530;10.256;2022-08-04T02:35:28;17.90;99.90
33881;DHT22;20172;47.530;10.256;2022-08-04T02:41:00;17.80;99.90
33881;DHT22;20172;47.530;10.256;2022-08-04T02:43:27;17.70;99.90
33881;DHT22;20172;47.530;10.256;2022-08-04T02:45:55;17.60;99.90
33881;DHT22;20172;47.530;10.256;2022-08-04T02:48:23;17.50;99.90
33881;DHT22;20172;47.530;10.256;2022-08-04T02:50:52;17.40;99.90
33881;DHT22;20172;47.530;10.256;2022-08-04T02:53:21;17.40;99.90
33881;DHT22;20172;47.530;10.256;2022-08-04T02:55:47;17.30;99.90
33881;DHT22;20172;47.530;10.256;2022-08-04T02:58:16;17.40;99.90
33881;DHT22;20172;47.530;10.256;2022-08-04T03:00:44;17.30;99.90
33881;DHT22;20172;47.530;10.256;2022-08-04T03:08:50;17.20;99.90
33881;DHT22;20172;47.530;10.256;2022-08-04T03:25:18;17.10;99.90
33881;DHT22;20172;47.530;10.256;2022-08-04T03:35:55;17.00;99.90
33881;DHT22;20172;47.530;10.256;2022-08-04T03:44:34;17.20;99.90
33881;DHT22;20172;47.530;10.256;2022-08-04T03:53:16;17.50;99.90
33881;DHT22;20172;47.530;10.256;2022-08-04T04:12:17;17.20;99.90
33881;DHT22;20172;47.530;10.256;2022-08-04T04:28:10;17.10;99.90
33881;DHT22;20172;47.530;10.256;2022-08-04T04:31:00;17.10;99.90
33881;DHT22;20172;47.530;10.256;2022-08-04T04:33:43;17.00;99.90
33881;DHT22;20172;47.530;10.256;2022-08-04T04:49:53;17.20;99.90
33881;DHT22;20172;47.530;10.256;2022-08-04T04:55:26;17.20;99.90
33881;DHT22;20172;47.530;10.256;2022-08-04T04:57:57;17.40;99.90
33881;DHT22;20172;47.530;10.256;2022-08-04T05:00:38;17.60;99.90
33881;DHT22;20172;47.530;10.256;2022-08-04T05:03:34;17.80;99.90
33881;DHT22;20172;47.530;10.256;2022-08-04T05:11:44;18.20;99.90
33881;DHT22;20172;47.530;10.256;2022-08-04T05:14:22;18.00;99.90
33881;DHT22;20172;47.530;10.256;2022-08-04T05:17:17;18.20;99.90
33881;DHT22;20172;47.530;10.256;2022-08-04T05:20:07;18.40;99.90
33881;DHT22;20172;47.530;10.256;2022-08-04T05:25:26;18.60;99.90
33881;DHT22;20172;47.530;10.256;2022-08-04T05:28:01;18.80;99.90
33881;DHT22;20172;47.530;10.256;2022-08-04T05:30:30;18.70;99.90
33881;DHT22;20172;47.530;10.256;2022-08-04T05:33:03;18.70;99.90
33881;DHT22;20172;47.530;10.256;2022-08-04T05:35:35;18.90;99.90
33881;DHT22;20172;47.530;10.256;2022-08-04T05:38:02;19.10;99.90
33881;DHT22;20172;47.530;10.256;2022-08-04T05:40:28;19.30;99.90
33881;DHT22;20172;47.530;10.256;2022-08-04T05:42:55;19.60;99.90
33881;DHT22;20172;47.530;10.256;2022-08-04T05:45:22;19.80;99.90
33881;DHT22;20172;47.530;10.256;2022-08-04T05:47:50;20.00;99.90
33881;DHT22;20172;47.530;10.256;2022-08-04T05:50:17;20.20;99.90
33881;DHT22;20172;47.530;10.256;2022-08-04T05:52:44;20.40;99.90
33881;DHT22;20172;47.530;10.256;2022-08-04T05:55:11;20.60;99.90
33881;DHT22;20172;47.530;10.256;2022-08-04T05:57:41;20.80;99.90
33881;DHT22;20172;47.530;10.256;2022-08-04T06:00:08;20.70;99.90
33881;DHT22;20172;47.530;10.256;2022-08-04T06:02:34;20.60;99.90
33881;DHT22;20172;47.530;10.256;2022-08-04T06:05:02;20.60;99.90
33881;DHT22;20172;47.530;10.256;2022-08-04T06:07:30;20.80;99.90
33881;DHT22;20172;47.530;10.256;2022-08-04T06:09:55;21.10;99.90
33881;DHT22;20172;47.530;10.256;2022-08-04T06:12:25;21.30;99.90
33881;DHT22;20172;47.530;10.256;2022-08-04T06:14:53;21.30;99.90
33881;DHT22;20172;47.530;10.256;2022-08-04T06:17:27;21.30;99.90
33881;DHT22;20172;47.530;10.256;2022-08-04T06:19:55;21.40;99.90
33881;DHT22;20172;47.530;10.256;2022-08-04T06:22:23;21.60;99.90
33881;DHT22;20172;47.530;10.256;2022-08-04T06:24:50;21.80;99.90
33881;DHT22;20172;47.530;10.256;2022-08-04T06:27:18;22.00;99.90
33881;DHT22;20172;47.530;10.256;2022-08-04T06:29:45;22.30;99.90
33881;DHT22;20172;47.530;10.256;2022-08-04T06:32:13;22.50;99.90
33881;DHT22;20172;47.530;10.256;2022-08-04T06:34:57;22.70;99.90
33881;DHT22;20172;47.530;10.256;2022-08-04T06:37:25;22.80;99.90
33881;DHT22;20172;47.530;10.256;2022-08-04T06:39:52;22.90;99.90
33881;DHT22;20172;47.530;10.256;2022-08-04T06:42:23;22.80;99.90
33881;DHT22;20172;47.530;10.256;2022-08-04T06:44:59;22.70;99.90
33881;DHT22;20172;47.530;10.256;2022-08-04T06:47:26;22.70;99.90
33881;DHT22;20172;47.530;10.256;2022-08-04T06:49:54;23.00;99.90
33881;DHT22;20172;47.530;10.256;2022-08-04T06:52:21;23.20;99.90
33881;DHT22;20172;47.530;10.256;2022-08-04T06:54:49;23.40;99.90
33881;DHT22;20172;47.530;10.256;2022-08-04T06:57:19;23.60;99.90
33881;DHT22;20172;47.530;10.256;2022-08-04T06:59:49;23.70;99.90
33881;DHT22;20172;47.530;10.256;2022-08-04T07:02:16;23.70;99.90
33881;DHT22;20172;47.530;10.256;2022-08-04T07:04:42;23.70;99.90
33881;DHT22;20172;47.530;10.256;2022-08-04T07:07:09;23.60;99.90
33881;DHT22;20172;47.530;10.256;2022-08-04T07:09:35;23.70;99.90
33881;DHT22;20172;47.530;10.256;2022-08-04T07:12:01;23.90;99.90
33881;DHT22;20172;47.530;10.256;2022-08-04T07:14:27;24.10;99.90
33881;DHT22;20172;47.530;10.256;2022-08-04T07:16:54;24.30;99.90
33881;DHT22;20172;47.530;10.256;2022-08-04T07:19:20;24.20;99.90
33881;DHT22;20172;47.530;10.256;2022-08-04T07:21:46;24.10;99.90
33881;DHT22;20172;47.530;10.256;2022-08-04T07:24:11;24.10;99.90
33881;DHT22;20172;47.530;10.256;2022-08-04T07:26:37;24.00;99.90
33881;DHT22;20172;47.530;10.256;2022-08-04T07:29:02;24.10;99.90
33881;DHT22;20172;47.530;10.256;2022-08-04T07:31:28;24.40;99.90
33881;DHT22;20172;47.530;10.256;2022-08-04T07:33:54;24.60;99.90
33881;DHT22;20172;47.530;10.256;2022-08-04T07:36:20;24.90;99.90
33881;DHT22;20172;47.530;10.256;2022-08-04T07:38:45;25.10;99.90
33881;DHT22;20172;47.530;10.256;2022-08-04T07:41:11;25.40;99.90
33881;DHT22;20172;47.530;10.256;2022-08-04T07:43:37;25.50;99.90
33881;DHT22;20172;47.530;10.256;2022-08-04T07:46:03;25.60;99.90
33881;DHT22;20172;47.530;10.256;2022-08-04T07:48:28;25.60;99.90
33881;DHT22;20172;47.530;10.256;2022-08-04T07:50:54;25.80;99.90
33881;DHT22;20172;47.530;10.256;2022-08-04T07:53:20;25.90;99.90
33881;DHT22;20172;47.530;10.256;2022-08-04T07:55:45;26.00;99.90
33881;DHT22;20172;47.530;10.256;2022-08-04T07:58:11;26.10;99.90
33881;DHT22;20172;47.530;10.256;2022-08-04T08:00:37;26.20;99.90
33881;DHT22;20172;47.530;10.256;2022-08-04T08:03:03;26.40;99.90
33881;DHT22;20172;47.530;10.256;2022-08-04T08:05:28;26.50;99.90
33881;DHT22;20172;47.530;10.256;2022-08-04T08:07:54;26.60;99.90
33881;DHT22;20172;47.530;10.256;2022-08-04T08:10:21;26.70;99.90
33881;DHT22;20172;47.530;10.256;2022-08-04T08:12:47;26.80;99.90
33881;DHT22;20172;47.530;10.256;2022-08-04T08:15:13;26.80;99.90
33881;DHT22;20172;47.530;10.256;2022-08-04T08:17:39;26.80;99.90
33881;DHT22;20172;47.530;10.256;2022-08-04T08:20:05;26.90;99.90
33881;DHT22;20172;47.530;10.256;2022-08-04T08:22:31;27.10;99.90
33881;DHT22;20172;47.530;10.256;2022-08-04T08:24:56;27.30;99.90
33881;DHT22;20172;47.530;10.256;2022-08-04T08:27:22;27.40;99.90
33881;DHT22;20172;47.530;10.256;2022-08-04T08:29:48;27.60;99.90
33881;DHT22;20172;47.530;10.256;2022-08-04T08:32:13;27.70;99.90
33881;DHT22;20172;47.530;10.256;2022-08-04T08:34:39;27.80;99.90
33881;DHT22;20172;47.530;10.256;2022-08-04T08:37:11;27.90;99.90
33881;DHT22;20172;47.530;10.256;2022-08-04T08:39:38;28.10;99.90
33881;DHT22;20172;47.530;10.256;2022-08-04T08:50:00;28.30;99.90
33881;DHT22;20172;47.530;10.256;2022-08-04T08:54:55;28.50;99.90
33881;DHT22;20172;47.530;10.256;2022-08-04T09:00:27;28.70;99.90
33881;DHT22;20172;47.530;10.256;2022-08-04T09:13:09;29.40;99.90
33881;DHT22;20172;47.530;10.256;2022-08-04T09:20:55;30.00;99.90
33881;DHT22;20172;47.530;10.256;2022-08-04T09:25:50;30.30;99.90
33881;DHT22;20172;47.530;10.256;2022-08-04T09:28:21;30.40;98.50
33881;DHT22;20172;47.530;10.256;2022-08-04T09:30:55;30.50;99.60
33881;DHT22;20172;47.530;10.256;2022-08-04T09:33:57;30.60;99.70
33881;DHT22;20172;47.530;10.256;2022-08-04T09:41:37;30.90;99.10
33881;DHT22;20172;47.530;10.256;2022-08-04T09:52:05;31.40;97.80
33881;DHT22;20172;47.530;10.256;2022-08-04T09:54:45;31.60;97.90
33881;DHT22;20172;47.530;10.256;2022-08-04T10:00:08;31.90;96.00
33881;DHT22;20172;47.530;10.256;2022-08-04T10:02:38;32.00;95.20
33881;DHT22;20172;47.530;10.256;2022-08-04T10:05:09;32.10;95.60
33881;DHT22;20172;47.530;10.256;2022-08-04T10:13:20;32.50;93.10
33881;DHT22;20172;47.530;10.256;2022-08-04T10:20:27;32.90;89.60
33881;DHT22;20172;47.530;10.256;2022-08-04T10:23:07;32.90;89.50
33881;DHT22;20172;47.530;10.256;2022-08-04T10:29:01;33.10;84.60
33881;DHT22;20172;47.530;10.256;2022-08-04T10:31:29;33.30;88.10
33881;DHT22;20172;47.530;10.256;2022-08-04T10:33:59;33.40;85.50
33881;DHT22;20172;47.530;10.256;2022-08-04T10:36:29;33.50;82.80
33881;DHT22;20172;47.530;10.256;2022-08-04T10:38:57;33.60;80.90
33881;DHT22;20172;47.530;10.256;2022-08-04T10:46:44;33.30;72.00
33881;DHT22;20172;47.530;10.256;2022-08-04T10:49:23;32.70;72.70
33881;DHT22;20172;47.530;10.256;2022-08-04T10:57:45;32.60;75.30
33881;DHT22;20172;47.530;10.256;2022-08-04T11:00:13;32.70;73.60
33881;DHT22;20172;47.530;10.256;2022-08-04T11:02:52;32.70;74.20
33881;DHT22;20172;47.530;10.256;2022-08-04T11:08:13;33.30;68.80
33881;DHT22;20172;47.530;10.256;2022-08-04T11:10:46;33.10;66.10
33881;DHT22;20172;47.530;10.256;2022-08-04T11:13:15;33.30;68.50
33881;DHT22;20172;47.530;10.256;2022-08-04T11:15:51;33.80;65.10
33881;DHT22;20172;47.530;10.256;2022-08-04T11:19:05;34.00;67.70
33881;DHT22;20172;47.530;10.256;2022-08-04T11:21:17;34.00;62.50
33881;DHT22;20172;47.530;10.256;2022-08-04T11:23:52;34.00;61.40
33881;DHT22;20172;47.530;10.256;2022-08-04T11:26:23;34.30;63.60
33881;DHT22;20172;47.530;10.256;2022-08-04T11:28:57;34.60;62.20
33881;DHT22;20172;47.530;10.256;2022-08-04T11:31:25;34.70;60.70
33881;DHT22;20172;47.530;10.256;2022-08-04T11:41:16;33.70;58.20
33881;DHT22;20172;47.530;10.256;2022-08-04T11:44:01;34.00;60.40
33881;DHT22;20172;47.530;10.256;2022-08-04T11:51:33;34.80;57.00
33881;DHT22;20172;47.530;10.256;2022-08-04T11:53:59;35.20;58.00
33881;DHT22;20172;47.530;10.256;2022-08-04T11:56:25;35.50;56.80
33881;DHT22;20172;47.530;10.256;2022-08-04T11:58:51;35.00;55.10
33881;DHT22;20172;47.530;10.256;2022-08-04T12:01:19;34.60;56.50
33881;DHT22;20172;47.530;10.256;2022-08-04T12:18:26;34.30;54.90
33881;DHT22;20172;47.530;10.256;2022-08-04T12:21:02;34.20;55.50
33881;DHT22;20172;47.530;10.256;2022-08-04T12:23:35;34.60;57.00
33881;DHT22;20172;47.530;10.256;2022-08-04T12:26:05;34.90;55.10
33881;DHT22;20172;47.530;10.256;2022-08-04T12:28:39;34.90;56.30
33881;DHT22;20172;47.530;10.256;2022-08-04T12:31:26;34.30;53.50
33881;DHT22;20172;47.530;10.256;2022-08-04T12:33:58;34.50;55.00
33881;DHT22;20172;47.530;10.256;2022-08-04T12:36:31;34.70;57.10
33881;DHT22;20172;47.530;10.256;2022-08-04T12:39:02;35.10;55.60
33881;DHT22;20172;47.530;10.256;2022-08-04T12:41:31;35.60;55.50
33881;DHT22;20172;47.530;10.256;2022-08-04T12:44:03;35.60;52.90
33881;DHT22;20172;47.530;10.256;2022-08-04T12:46:29;35.80;57.30
33881;DHT22;20172;47.530;10.256;2022-08-04T12:48:58;35.90;54.20
33881;DHT22;20172;47.530;10.256;2022-08-04T12:51:26;36.00;56.60
33881;DHT22;20172;47.530;10.256;2022-08-04T12:53:52;35.10;52.90
33881;DHT22;20172;47.530;10.256;2022-08-04T12:56:25;35.00;55.00
33881;DHT22;20172;47.530;10.256;2022-08-04T12:58:52;35.30;55.70
33881;DHT22;20172;47.530;10.256;2022-08-04T13:01:25;35.30;55.00
33881;DHT22;20172;47.530;10.256;2022-08-04T13:03:55;35.60;56.50
33881;DHT22;20172;47.530;10.256;2022-08-04T13:06:33;35.90;57.20
33881;DHT22;20172;47.530;10.256;2022-08-04T13:09:07;36.10;53.50
33881;DHT22;20172;47.530;10.256;2022-08-04T13:11:40;36.10;52.70
33881;DHT22;20172;47.530;10.256;2022-08-04T13:14:08;36.30;55.30
33881;DHT22;20172;47.530;10.256;2022-08-04T13:16:34;36.60;57.00
33881;DHT22;20172;47.530;10.256;2022-08-04T13:19:00;36.90;55.00
33881;DHT22;20172;47.530;10.256;2022-08-04T13:21:30;37.30;53.60
33881;DHT22;20172;47.530;10.256;2022-08-04T13:24:00;37.60;56.60
33881;DHT22;20172;47.530;10.256;2022-08-04T13:26:28;37.60;53.10
33881;DHT22;20172;47.530;10.256;2022-08-04T13:28:58;37.40;52.60
33881;DHT22;20172;47.530;10.256;2022-08-04T13:31:26;36.90;50.50
33881;DHT22;20172;47.530;10.256;2022-08-04T13:34:02;37.00;54.20
33881;DHT22;20172;47.530;10.256;2022-08-04T13:36:30;37.20;52.00
33881;DHT22;20172;47.530;10.256;2022-08-04T13:39:07;37.40;52.40
33881;DHT22;20172;47.530;10.256;2022-08-04T13:41:33;38.10;50.00
33881;DHT22;20172;47.530;10.256;2022-08-04T13:44:01;39.50;52.40
33881;DHT22;20172;47.530;10.256;2022-08-04T13:46:27;39.90;49.90
33881;DHT22;20172;47.530;10.256;2022-08-04T13:48:54;39.70;48.70
33881;DHT22;20172;47.530;10.256;2022-08-04T13:51:21;39.30;51.00
33881;DHT22;20172;47.530;10.256;2022-08-04T13:53:54;38.90;53.10
33881;DHT22;20172;47.530;10.256;2022-08-04T13:56:20;38.60;52.20
33881;DHT22;20172;47.530;10.256;2022-08-04T13:58:46;38.40;52.70
33881;DHT22;20172;47.530;10.256;2022-08-04T14:01:14;38.30;50.60
33881;DHT22;20172;47.530;10.256;2022-08-04T14:06:28;37.70;53.50
33881;DHT22;20172;47.530;10.256;2022-08-04T14:08:59;37.50;55.00
33881;DHT22;20172;47.530;10.256;2022-08-04T14:13:56;37.40;54.90
33881;DHT22;20172;47.530;10.256;2022-08-04T14:16:22;37.40;55.30
33881;DHT22;20172;47.530;10.256;2022-08-04T14:18:48;37.50;53.30
33881;DHT22;20172;47.530;10.256;2022-08-04T14:21:21;37.40;54.10
33881;DHT22;20172;47.530;10.256;2022-08-04T14:23:50;37.20;53.90
33881;DHT22;20172;47.530;10.256;2022-08-04T14:28:43;36.80;54.20
33881;DHT22;20172;47.530;10.256;2022-08-04T14:33:36;36.70;54.60
33881;DHT22;20172;47.530;10.256;2022-08-04T14:36:01;37.00;52.60
33881;DHT22;20172;47.530;10.256;2022-08-04T14:38:39;37.10;54.40
33881;DHT22;20172;47.530;10.256;2022-08-04T14:41:05;37.20;53.30
33881;DHT22;20172;47.530;10.256;2022-08-04T14:43:31;37.40;54.10
33881;DHT22;20172;47.530;10.256;2022-08-04T14:46:02;37.70;53.80
33881;DHT22;20172;47.530;10.256;2022-08-04T14:48:28;38.00;54.00
33881;DHT22;20172;47.530;10.256;2022-08-04T14:50:53;38.60;51.90
33881;DHT22;20172;47.530;10.256;2022-08-04T14:53:23;39.60;51.40
33881;DHT22;20172;47.530;10.256;2022-08-04T14:55:58;40.50;48.70
33881;DHT22;20172;47.530;10.256;2022-08-04T15:00:50;41.40;50.20
33881;DHT22;20172;47.530;10.256;2022-08-04T15:03:17;41.40;48.70
33881;DHT22;20172;47.530;10.256;2022-08-04T15:05:43;41.40;47.50
33881;DHT22;20172;47.530;10.256;2022-08-04T15:08:09;41.10;48.80
33881;DHT22;20172;47.530;10.256;2022-08-04T15:10:36;40.40;50.40
33881;DHT22;20172;47.530;10.256;2022-08-04T15:13:02;39.50;50.80
33881;DHT22;20172;47.530;10.256;2022-08-04T15:15:28;38.60;52.30
33881;DHT22;20172;47.530;10.256;2022-08-04T15:17:53;37.90;53.20
33881;DHT22;20172;47.530;10.256;2022-08-04T15:20:19;37.20;54.20
33881;DHT22;20172;47.530;10.256;2022-08-04T15:22:45;36.70;54.50
33881;DHT22;20172;47.530;10.256;2022-08-04T15:25:11;36.20;54.60
33881;DHT22;20172;47.530;10.256;2022-08-04T15:27:37;36.00;56.00
33881;DHT22;20172;47.530;10.256;2022-08-04T15:30:07;35.80;55.10
33881;DHT22;20172;47.530;10.256;2022-08-04T15:32:36;35.60;55.90
33881;DHT22;20172;47.530;10.256;2022-08-04T15:35:17;35.60;57.40
33881;DHT22;20172;47.530;10.256;2022-08-04T15:43:41;35.60;55.40
33881;DHT22;20172;47.530;10.256;2022-08-04T15:46:09;35.50;55.70
33881;DHT22;20172;47.530;10.256;2022-08-04T15:48:36;35.50;55.90
33881;DHT22;20172;47.530;10.256;2022-08-04T15:51:08;35.40;55.80
33881;DHT22;20172;47.530;10.256;2022-08-04T15:58:54;34.60;57.20
33881;DHT22;20172;47.530;10.256;2022-08-04T16:01:20;34.40;59.10
33881;DHT22;20172;47.530;10.256;2022-08-04T16:03:48;34.10;59.90
33881;DHT22;20172;47.530;10.256;2022-08-04T16:16:32;33.30;61.10
33881;DHT22;20172;47.530;10.256;2022-08-04T16:19:27;33.20;60.60
33881;DHT22;20172;47.530;10.256;2022-08-04T16:21:57;33.00;60.60
33881;DHT22;20172;47.530;10.256;2022-08-04T16:24:32;32.90;60.40
33881;DHT22;20172;47.530;10.256;2022-08-04T16:27:01;32.90;61.60
33881;DHT22;20172;47.530;10.256;2022-08-04T16:29:43;32.70;62.70
33881;DHT22;20172;47.530;10.256;2022-08-04T16:32:10;32.70;62.50
33881;DHT22;20172;47.530;10.256;2022-08-04T16:37:29;32.50;62.60
33881;DHT22;20172;47.530;10.256;2022-08-04T16:40:33;32.40;62.10
33881;DHT22;20172;47.530;10.256;2022-08-04T16:43:16;32.50;62.60
33881;DHT22;20172;47.530;10.256;2022-08-04T16:45:47;32.40;62.50
33881;DHT22;20172;47.530;10.256;2022-08-04T16:48:15;32.40;61.70
33881;DHT22;20172;47.530;10.256;2022-08-04T16:50:53;32.30;62.80
33881;DHT22;20172;47.530;10.256;2022-08-04T16:53:21;32.10;63.10
33881;DHT22;20172;47.530;10.256;2022-08-04T16:55:49;32.10;63.20
33881;DHT22;20172;47.530;10.256;2022-08-04T16:58:27;32.00;60.90
33881;DHT22;20172;47.530;10.256;2022-08-04T17:00:53;31.90;62.70
33881;DHT22;20172;47.530;10.256;2022-08-04T17:03:18;32.00;62.50
33881;DHT22;20172;47.530;10.256;2022-08-04T17:05:45;32.60;61.40
33881;DHT22;20172;47.530;10.256;2022-08-04T17:08:11;33.40;61.20
33881;DHT22;20172;47.530;10.256;2022-08-04T17:10:41;33.10;61.00
33881;DHT22;20172;47.530;10.256;2022-08-04T17:15:50;32.30;60.70
33881;DHT22;20172;47.530;10.256;2022-08-04T17:18:22;32.20;61.50
33881;DHT22;20172;47.530;10.256;2022-08-04T17:20:49;31.90;61.50
33881;DHT22;20172;47.530;10.256;2022-08-04T17:23:31;31.70;61.80
33881;DHT22;20172;47.530;10.256;2022-08-04T17:26:01;31.50;61.80
33881;DHT22;20172;47.530;10.256;2022-08-04T17:28:27;31.30;62.70
33881;DHT22;20172;47.530;10.256;2022-08-04T17:30:55;31.10;64.30
33881;DHT22;20172;47.530;10.256;2022-08-04T17:33:23;30.80;66.40
33881;DHT22;20172;47.530;10.256;2022-08-04T17:35:50;30.60;67.60
33881;DHT22;20172;47.530;10.256;2022-08-04T17:38:16;30.40;68.90
33881;DHT22;20172;47.530;10.256;2022-08-04T17:41:02;30.20;71.00
33881;DHT22;20172;47.530;10.256;2022-08-04T17:43:47;29.80;69.80
33881;DHT22;20172;47.530;10.256;2022-08-04T17:54:33;28.90;73.30
33881;DHT22;20172;47.530;10.256;2022-08-04T17:57:00;28.90;74.10
33881;DHT22;20172;47.530;10.256;2022-08-04T18:02:05;28.30;76.80
33881;DHT22;20172;47.530;10.256;2022-08-04T18:07:14;27.90;79.30
33881;DHT22;20172;47.530;10.256;2022-08-04T18:12:20;27.50;81.00
33881;DHT22;20172;47.530;10.256;2022-08-04T18:14:48;27.20;82.20
33881;DHT22;20172;47.530;10.256;2022-08-04T18:17:32;27.00;83.00
33881;DHT22;20172;47.530;10.256;2022-08-04T18:19:58;27.00;83.50
33881;DHT22;20172;47.530;10.256;2022-08-04T18:22:24;26.90;83.70
33881;DHT22;20172;47.530;10.256;2022-08-04T18:24:50;27.00;83.90
33881;DHT22;20172;47.530;10.256;2022-08-04T18:27:17;26.90;84.10
33881;DHT22;20172;47.530;10.256;2022-08-04T18:29:43;26.80;84.60
33881;DHT22;20172;47.530;10.256;2022-08-04T18:32:09;26.60;85.30
33881;DHT22;20172;47.530;10.256;2022-08-04T18:34:36;26.50;86.40
33881;DHT22;20172;47.530;10.256;2022-08-04T18:37:02;26.50;86.00
33881;DHT22;20172;47.530;10.256;2022-08-04T18:39:27;26.30;86.50
33881;DHT22;20172;47.530;10.256;2022-08-04T18:41:55;25.80;88.60
33881;DHT22;20172;47.530;10.256;2022-08-04T18:44:21;25.70;89.20
33881;DHT22;20172;47.530;10.256;2022-08-04T18:46:47;25.60;88.80
33881;DHT22;20172;47.530;10.256;2022-08-04T18:49:13;25.70;88.10
33881;DHT22;20172;47.530;10.256;2022-08-04T18:51:39;25.80;86.50
33881;DHT22;20172;47.530;10.256;2022-08-04T18:54:05;25.80;86.10
33881;DHT22;20172;47.530;10.256;2022-08-04T18:56:32;25.80;85.80
33881;DHT22;20172;47.530;10.256;2022-08-04T18:59:03;26.00;86.10
33881;DHT22;20172;47.530;10.256;2022-08-04T19:01:29;26.00;86.00
33881;DHT22;20172;47.530;10.256;2022-08-04T19:03:55;26.00;87.10
33881;DHT22;20172;47.530;10.256;2022-08-04T19:06:20;26.00;87.30
33881;DHT22;20172;47.530;10.256;2022-08-04T19:08:46;26.00;87.00
33881;DHT22;20172;47.530;10.256;2022-08-04T19:11:12;25.80;87.80
33881;DHT22;20172;47.530;10.256;2022-08-04T19:13:38;25.60;89.00
33881;DHT22;20172;47.530;10.256;2022-08-04T19:16:04;25.40;90.10
33881;DHT22;20172;47.530;10.256;2022-08-04T19:18:30;25.00;90.30
33881;DHT22;20172;47.530;10.256;2022-08-04T19:21:00;24.70;90.60
33881;DHT22;20172;47.530;10.256;2022-08-04T19:23:26;24.60;90.90
33881;DHT22;20172;47.530;10.256;2022-08-04T19:25:52;24.60;90.70
33881;DHT22;20172;47.530;10.256;2022-08-04T19:28:18;24.60;90.60
33881;DHT22;20172;47.530;10.256;2022-08-04T19:30:44;24.60;90.50
33881;DHT22;20172;47.530;10.256;2022-08-04T19:33:10;24.50;90.40
33881;DHT22;20172;47.530;10.256;2022-08-04T19:35:36;24.50;90.10
33881;DHT22;20172;47.530;10.256;2022-08-04T19:38:07;24.60;90.00
33881;DHT22;20172;47.530;10.256;2022-08-04T19:40:34;24.70;89.50
33881;DHT22;20172;47.530;10.256;2022-08-04T19:43:00;24.80;88.10
33881;DHT22;20172;47.530;10.256;2022-08-04T19:45:26;24.90;89.10
33881;DHT22;20172;47.530;10.256;2022-08-04T19:47:51;25.10;88.10
33881;DHT22;20172;47.530;10.256;2022-08-04T19:50:17;25.10;88.30
33881;DHT22;20172;47.530;10.256;2022-08-04T19:52:43;25.20;88.30
33881;DHT22;20172;47.530;10.256;2022-08-04T19:55:08;25.10;89.70
33881;DHT22;20172;47.530;10.256;2022-08-04T19:57:34;25.00;89.00
33881;DHT22;20172;47.530;10.256;2022-08-04T20:00:01;24.90;88.90
33881;DHT22;20172;47.530;10.256;2022-08-04T20:02:26;24.90;89.20
33881;DHT22;20172;47.530;10.256;2022-08-04T20:04:52;24.90;89.40
33881;DHT22;20172;47.530;10.256;2022-08-04T20:07:18;24.80;89.50
33881;DHT22;20172;47.530;10.256;2022-08-04T20:09:43;24.80;89.50
33881;DHT22;20172;47.530;10.256;2022-08-04T20:12:09;24.70;89.90
33881;DHT22;20172;47.530;10.256;2022-08-04T20:14:35;24.60;90.10
33881;DHT22;20172;47.530;10.256;2022-08-04T20:17:02;24.50;90.50
33881;DHT22;20172;47.530;10.256;2022-08-04T20:19:28;24.30;90.50
33881;DHT22;20172;47.530;10.256;2022-08-04T20:21:53;24.20;90.80
33881;DHT22;20172;47.530;10.256;2022-08-04T20:24:19;24.10;90.90
33881;DHT22;20172;47.530;10.256;2022-08-04T20:26:45;24.00;91.20
33881;DHT22;20172;47.530;10.256;2022-08-04T20:29:10;24.00;91.10
33881;DHT22;20172;47.530;10.256;2022-08-04T20:31:36;23.90;91.20
33881;DHT22;20172;47.530;10.256;2022-08-04T20:34:02;23.80;91.30
33881;DHT22;20172;47.530;10.256;2022-08-04T20:36:27;23.70;91.60
33881;DHT22;20172;47.530;10.256;2022-08-04T20:38:53;23.70;91.60